createdAt,value
2022-08-01T00:00:13.135Z,67.73
2022-08-01T00:02:47.162Z,68.09
2022-08-01T00:05:14.534Z,68.17
2022-08-01T00:07:41.841Z,68.17
2022-08-01T00:10:15.188Z,68.06
2022-08-01T00:12:43.621Z,68.27
2022-08-01T00:15:12.847Z,68.40
2022-08-01T00:17:46.490Z,68.33
2022-08-01T00:20:14.940Z,68.67
2022-08-01T00:22:42.272Z,68.34
2022-08-01T00:25:10.031Z,68.29
2022-08-01T00:27:41.026Z,68.57
2022-08-01T00:30:14.623Z,69.07
2022-08-01T00:32:43.640Z,68.92
2022-08-01T00:35:15.976Z,69.43
2022-08-01T00:37:47.380Z,68.96
2022-08-01T00:40:16.158Z,68.86
2022-08-01T00:42:45.805Z,69.01
2022-08-01T00:45:13.076Z,69.47
2022-08-01T00:47:40.581Z,69.48
2022-08-01T00:50:08.907Z,70.20
2022-08-01T00:52:36.797Z,70.80
2022-08-01T00:55:04.729Z,70.96
2022-08-01T00:58:03.407Z,70.87
2022-08-01T01:00:20.419Z,70.46
2022-08-01T01:02:54.589Z,71.25
2022-08-01T01:05:22.481Z,71.03
2022-08-01T01:08:03.439Z,71.94
2022-08-01T01:10:41.313Z,72.59
2022-08-01T01:13:21.489Z,72.55
2022-08-01T01:15:56.166Z,73.31
2022-08-01T01:18:32.987Z,73.76
2022-08-01T01:21:22.553Z,73.60
2022-08-01T01:24:19.864Z,74.37
2022-08-01T01:26:52.744Z,74.37
2022-08-01T01:29:58.580Z,74.40
2022-08-01T01:32:35.315Z,74.83
2022-08-01T01:35:09.996Z,74.87
2022-08-01T01:37:42.628Z,75.06
2022-08-01T01:40:13.409Z,75.16
2022-08-01T01:42:43.208Z,74.64
2022-08-01T01:45:15.848Z,75.07
2022-08-01T01:47:54.453Z,74.71
2022-08-01T01:50:23.341Z,74.93
2022-08-01T01:52:51.938Z,75.62
2022-08-01T01:55:27.137Z,75.46
2022-08-01T01:57:56.458Z,75.95
2022-08-01T02:00:24.748Z,75.57
2022-08-01T02:02:57.353Z,75.41
2022-08-01T02:05:26.130Z,75.73
2022-08-01T02:07:59.684Z,75.99
2022-08-01T02:10:29.324Z,76.21
2022-08-01T02:12:58.383Z,76.19
2022-08-01T02:15:32.289Z,75.92
2022-08-01T02:18:02.010Z,75.97
2022-08-01T02:20:31.334Z,76.52
2022-08-01T02:23:08.296Z,76.40
2022-08-01T02:26:11.105Z,76.98
2022-08-01T02:28:42.981Z,76.43
2022-08-01T02:31:15.193Z,75.71
2022-08-01T02:33:51.241Z,75.82
2022-08-01T02:36:30.853Z,76.17
2022-08-01T02:39:03.847Z,76.14
2022-08-01T02:41:40.589Z,76.45
2022-08-01T02:44:10.434Z,76.44
2022-08-01T02:46:41.682Z,76.52
2022-08-01T02:49:11.266Z,76.57
2022-08-01T02:51:49.198Z,76.43
2022-08-01T02:54:19.323Z,76.48
2022-08-01T02:56:57.038Z,76.63
2022-08-01T02:59:28.454Z,76.83
2022-08-01T03:02:02.917Z,77.32
2022-08-01T03:04:33.413Z,77.13
2022-08-01T03:07:11.950Z,77.14
2022-08-01T03:09:41.705Z,76.92
2022-08-01T03:12:17.389Z,77.05
2022-08-01T03:14:47.583Z,77.41
2022-08-01T03:17:21.191Z,77.45
2022-08-01T03:19:50.762Z,77.64
2022-08-01T03:22:19.756Z,77.55
2022-08-01T03:24:50.886Z,77.65
2022-08-01T03:27:21.457Z,78.23
2022-08-01T03:29:57.918Z,78.01
2022-08-01T03:32:29.020Z,78.86
2022-08-01T03:34:56.711Z,78.32
2022-08-01T03:38:14.295Z,78.70
2022-08-01T03:40:42.315Z,78.32
2022-08-01T03:43:26.749Z,78.56
2022-08-01T03:45:58.805Z,78.57
2022-08-01T03:48:30.666Z,78.22
2022-08-01T03:51:00.171Z,78.27
2022-08-01T03:53:31.713Z,78.26
2022-08-01T03:56:03.662Z,78.62
2022-08-01T03:58:31.660Z,78.98
2022-08-01T04:00:59.777Z,78.51
2022-08-01T04:03:27.444Z,78.58
2022-08-01T04:05:54.862Z,78.63
2022-08-01T04:08:22.171Z,78.95
2022-08-01T04:10:56.410Z,78.48
2022-08-01T04:13:24.013Z,79.02
2022-08-01T04:15:51.312Z,79.00
2022-08-01T04:18:18.499Z,79.08
2022-08-01T04:20:47.676Z,79.41
2022-08-01T04:23:21.669Z,79.38
2022-08-01T04:25:51.117Z,79.73
2022-08-01T04:28:20.675Z,80.06
2022-08-01T04:30:52.726Z,79.44
2022-08-01T04:33:21.197Z,79.54
2022-08-01T04:36:02.019Z,79.54
2022-08-01T04:38:37.508Z,79.18
2022-08-01T04:41:08.691Z,79.15
2022-08-01T04:43:37.959Z,79.29
2022-08-01T04:46:10.657Z,79.25
2022-08-01T04:48:39.628Z,79.49
2022-08-01T04:51:16.008Z,79.87
2022-08-01T04:53:44.613Z,79.96
2022-08-01T04:56:13.963Z,79.81
2022-08-01T04:58:41.989Z,79.60
2022-08-01T05:01:14.987Z,79.87
2022-08-01T05:03:42.396Z,80.14
2022-08-01T05:06:19.169Z,80.03
2022-08-01T05:08:51.792Z,79.86
2022-08-01T05:11:18.994Z,79.34
2022-08-01T05:13:49.745Z,79.80
2022-08-01T05:16:17.865Z,79.65
2022-08-01T05:18:45.119Z,80.11
2022-08-01T05:21:14.905Z,80.07
2022-08-01T05:23:43.574Z,80.02
2022-08-01T05:26:14.554Z,80.29
2022-08-01T05:28:42.693Z,80.09
2022-08-01T05:31:09.784Z,80.34
2022-08-01T05:33:36.856Z,80.02
2022-08-01T05:36:04.321Z,79.55
2022-08-01T05:38:34.464Z,79.97
2022-08-01T05:41:01.938Z,80.17
2022-08-01T05:43:29.392Z,80.02
2022-08-01T05:45:56.877Z,79.54
2022-08-01T05:48:24.015Z,79.39
2022-08-01T05:50:54.650Z,78.86
2022-08-01T05:53:25.412Z,79.00
2022-08-01T05:55:52.393Z,79.39
2022-08-01T05:58:19.639Z,79.84
2022-08-01T06:00:46.828Z,79.54
2022-08-01T06:03:15.243Z,79.28
2022-08-01T06:05:42.340Z,79.30
2022-08-01T06:08:09.678Z,79.67
2022-08-01T06:10:40.712Z,80.40
2022-08-01T06:13:08.046Z,79.83
2022-08-01T06:15:35.409Z,79.92
2022-08-01T06:18:02.518Z,78.94
2022-08-01T06:20:29.742Z,79.12
2022-08-01T06:22:56.980Z,77.57
2022-08-01T06:25:34.265Z,76.65
2022-08-01T06:28:01.817Z,75.60
2022-08-01T06:30:29.101Z,74.89
2022-08-01T06:33:05.746Z,74.33
2022-08-01T06:35:32.873Z,74.33
2022-08-01T06:38:00.009Z,74.58
2022-08-01T06:40:27.586Z,74.61
2022-08-01T06:42:54.766Z,74.27
2022-08-01T06:45:23.315Z,73.77
2022-08-01T06:47:51.105Z,73.94
2022-08-01T06:50:18.589Z,73.72
2022-08-01T06:52:47.144Z,74.04
2022-08-01T06:55:14.440Z,73.15
2022-08-01T06:57:54.193Z,73.70
2022-08-01T07:00:23.575Z,74.53
2022-08-01T07:03:02.877Z,74.26
2022-08-01T07:05:31.972Z,73.97
2022-08-01T07:08:00.222Z,72.99
2022-08-01T07:10:27.417Z,71.37
2022-08-01T07:12:54.498Z,70.51
2022-08-01T07:15:27.155Z,69.47
2022-08-01T07:17:54.434Z,68.73
2022-08-01T07:20:26.974Z,68.22
2022-08-01T07:22:54.310Z,68.62
2022-08-01T07:25:23.614Z,69.17
2022-08-01T07:27:50.756Z,70.03
2022-08-01T07:30:19.661Z,70.26
2022-08-01T07:32:46.956Z,71.77
2022-08-01T07:35:14.464Z,71.61
2022-08-01T07:37:46.297Z,72.17
2022-08-01T07:40:19.002Z,72.32
2022-08-01T07:42:47.658Z,72.39
2022-08-01T07:45:16.102Z,72.00
2022-08-01T07:47:47.941Z,71.68
2022-08-01T07:50:15.100Z,71.53
2022-08-01T07:52:42.650Z,71.08
2022-08-01T07:55:11.827Z,70.21
2022-08-01T07:57:43.997Z,70.05
2022-08-01T08:00:11.673Z,69.68
2022-08-01T08:02:41.221Z,69.36
2022-08-01T08:05:14.135Z,68.43
2022-08-01T08:07:41.565Z,67.42
2022-08-01T08:10:09.469Z,66.26
2022-08-01T08:12:36.449Z,66.05
2022-08-01T08:15:06.604Z,65.38
2022-08-01T08:17:35.905Z,65.09
2022-08-01T08:20:10.021Z,64.07
2022-08-01T08:22:37.593Z,66.12
2022-08-01T08:25:05.609Z,66.10
2022-08-01T08:27:35.436Z,66.33
2022-08-01T08:30:09.855Z,66.68
2022-08-01T08:32:37.141Z,65.12
2022-08-01T08:35:05.863Z,65.73
2022-08-01T08:37:39.075Z,66.15
2022-08-01T08:40:16.581Z,66.01
2022-08-01T08:42:48.444Z,65.52
2022-08-01T08:45:15.657Z,65.92
2022-08-01T08:47:44.421Z,65.08
2022-08-01T08:50:14.805Z,65.22
2022-08-01T08:52:43.512Z,65.28
2022-08-01T08:55:12.393Z,64.66
2022-08-01T08:57:41.505Z,64.52
2022-08-01T09:00:14.122Z,64.13
2022-08-01T09:02:47.590Z,64.15
2022-08-01T09:05:19.497Z,63.54
2022-08-01T09:07:47.246Z,63.59
2022-08-01T09:10:14.410Z,63.96
2022-08-01T09:13:03.080Z,64.32
2022-08-01T09:15:41.074Z,63.54
2022-08-01T09:18:34.859Z,63.68
2022-08-01T09:21:15.275Z,63.07
2022-08-01T09:23:54.215Z,63.51
2022-08-01T09:26:32.805Z,63.88
2022-08-01T09:29:05.916Z,64.14
2022-08-01T09:31:47.677Z,63.18
2022-08-01T09:34:19.741Z,63.22
2022-08-01T09:36:56.622Z,63.07
2022-08-01T09:39:32.018Z,63.28
2022-08-01T09:42:01.622Z,62.99
2022-08-01T09:44:44.746Z,62.65
2022-08-01T09:47:15.506Z,62.10
2022-08-01T09:49:50.579Z,62.42
2022-08-01T09:52:29.122Z,62.48
2022-08-01T09:55:01.905Z,62.01
2022-08-01T09:57:30.322Z,62.10
2022-08-01T10:00:01.271Z,61.46
2022-08-01T10:02:37.592Z,60.38
2022-08-01T10:05:08.260Z,60.32
2022-08-01T10:08:07.781Z,60.45
2022-08-01T10:10:37.435Z,59.59
2022-08-01T10:13:04.876Z,60.66
2022-08-01T10:15:37.450Z,60.15
2022-08-01T10:18:16.111Z,60.01
2022-08-01T10:20:44.503Z,59.21
2022-08-01T10:23:12.716Z,58.86
2022-08-01T10:25:46.949Z,58.62
2022-08-01T10:28:17.824Z,57.65
2022-08-01T10:30:55.476Z,57.94
2022-08-01T10:33:50.900Z,59.15
2022-08-01T10:36:11.929Z,58.57
2022-08-01T10:38:40.419Z,58.33
2022-08-01T10:41:08.797Z,58.03
2022-08-01T10:43:36.999Z,58.37
2022-08-01T10:46:06.965Z,57.62
2022-08-01T10:48:47.897Z,56.40
2022-08-01T10:51:17.837Z,56.16
2022-08-01T10:53:54.338Z,56.02
2022-08-01T10:56:46.759Z,55.84
2022-08-01T10:59:49.362Z,56.47
2022-08-01T11:02:09.756Z,56.43
2022-08-01T11:04:46.502Z,56.89
2022-08-01T11:07:25.816Z,56.97
2022-08-01T11:10:16.643Z,56.94
2022-08-01T11:12:44.270Z,57.70
2022-08-01T11:15:11.585Z,57.18
2022-08-01T11:17:49.108Z,56.53
2022-08-01T11:20:33.627Z,57.10
2022-08-01T11:23:12.722Z,56.72
2022-08-01T11:26:05.146Z,55.57
2022-08-01T11:28:41.275Z,55.05
2022-08-01T11:31:17.277Z,54.98
2022-08-01T11:33:49.593Z,53.73
2022-08-01T11:36:16.989Z,54.02
2022-08-01T11:38:51.197Z,54.54
2022-08-01T11:41:36.849Z,53.34
2022-08-01T11:44:30.527Z,53.77
2022-08-01T11:47:09.146Z,53.32
2022-08-01T11:49:37.335Z,52.92
2022-08-01T11:52:16.853Z,52.17
2022-08-01T11:54:46.302Z,51.73
2022-08-01T11:57:23.472Z,50.79
2022-08-01T12:00:03.969Z,50.36
2022-08-01T12:02:35.022Z,51.35
2022-08-01T12:05:11.684Z,51.71
2022-08-01T12:07:41.616Z,52.56
2022-08-01T12:10:15.061Z,52.89
2022-08-01T12:12:49.687Z,52.47
2022-08-01T12:15:19.635Z,51.38
2022-08-01T12:17:58.308Z,51.54
2022-08-01T12:20:31.963Z,51.77
2022-08-01T12:23:08.383Z,50.56
2022-08-01T12:25:36.516Z,49.83
2022-08-01T12:28:05.785Z,49.20
2022-08-01T12:30:39.859Z,47.96
2022-08-01T12:33:09.612Z,49.44
2022-08-01T12:35:41.669Z,47.55
2022-08-01T12:38:18.717Z,48.89
2022-08-01T12:40:51.693Z,50.55
2022-08-01T12:43:28.596Z,51.19
2022-08-01T12:45:59.942Z,51.38
2022-08-01T12:48:32.434Z,51.06
2022-08-01T12:51:02.017Z,51.40
2022-08-01T12:53:41.142Z,50.42
2022-08-01T12:56:10.367Z,50.04
2022-08-01T12:58:37.647Z,50.15
2022-08-01T13:01:14.161Z,49.39
2022-08-01T13:03:58.502Z,48.00
2022-08-01T13:06:31.764Z,48.45
2022-08-01T13:09:14.243Z,49.24
2022-08-01T13:12:09.612Z,49.06
2022-08-01T13:14:41.702Z,47.44
2022-08-01T13:17:09.342Z,48.17
2022-08-01T13:19:48.063Z,48.29
2022-08-01T13:22:18.324Z,48.96
2022-08-01T13:25:10.482Z,49.38
2022-08-01T13:27:53.750Z,48.77
2022-08-01T13:30:25.892Z,48.72
2022-08-01T13:33:11.385Z,48.24
2022-08-01T13:35:38.428Z,48.51
2022-08-01T13:38:09.369Z,49.07
2022-08-01T13:40:36.614Z,48.68
2022-08-01T13:43:03.756Z,48.43
2022-08-01T13:45:30.865Z,47.73
2022-08-01T13:48:12.929Z,47.59
2022-08-01T13:51:13.527Z,46.27
2022-08-01T13:53:58.417Z,46.54
2022-08-01T13:56:28.958Z,45.78
2022-08-01T13:58:56.534Z,45.48
2022-08-01T14:01:24.614Z,46.53
2022-08-01T14:03:52.454Z,47.32
2022-08-01T14:06:23.092Z,47.76
2022-08-01T14:08:50.789Z,47.74
2022-08-01T14:11:24.412Z,47.54
2022-08-01T14:13:54.873Z,47.46
2022-08-01T14:16:40.497Z,47.20
2022-08-01T14:19:07.894Z,47.13
2022-08-01T14:21:35.086Z,46.04
2022-08-01T14:24:02.153Z,45.04
2022-08-01T14:26:29.407Z,45.13
2022-08-01T14:29:04.234Z,43.61
2022-08-01T14:31:34.667Z,43.12
2022-08-01T14:34:02.425Z,44.15
2022-08-01T14:36:39.398Z,43.73
2022-08-01T14:39:15.287Z,43.89
2022-08-01T14:41:49.084Z,42.46
2022-08-01T14:44:25.270Z,42.09
2022-08-01T14:46:59.985Z,42.18
2022-08-01T14:49:38.135Z,43.12
2022-08-01T14:52:31.131Z,42.95
2022-08-01T14:54:58.323Z,42.59
2022-08-01T14:57:25.758Z,43.27
2022-08-01T14:59:57.206Z,42.15
2022-08-01T15:02:28.187Z,43.13
2022-08-01T15:04:55.637Z,43.15
2022-08-01T15:07:22.825Z,42.63
2022-08-01T15:09:50.648Z,42.99
2022-08-01T15:12:49.830Z,43.43
2022-08-01T15:15:26.050Z,43.85
2022-08-01T15:17:54.322Z,43.51
2022-08-01T15:20:25.505Z,43.22
2022-08-01T15:22:53.693Z,43.72
2022-08-01T15:25:24.585Z,43.78
2022-08-01T15:27:52.153Z,43.89
2022-08-01T15:30:23.689Z,43.67
2022-08-01T15:32:54.680Z,43.42
2022-08-01T15:35:21.927Z,42.98
2022-08-01T15:37:49.081Z,43.51
2022-08-01T15:40:17.226Z,43.89
2022-08-01T15:42:50.891Z,43.58
2022-08-01T15:45:47.332Z,44.01
2022-08-01T15:48:09.456Z,44.69
2022-08-01T15:50:51.445Z,45.47
2022-08-01T15:53:23.539Z,44.90
2022-08-01T15:55:52.318Z,45.64
2022-08-01T15:58:20.347Z,45.12
2022-08-01T16:00:52.941Z,45.96
2022-08-01T16:03:21.802Z,46.70
2022-08-01T16:05:50.435Z,47.04
2022-08-01T16:08:18.233Z,47.07
2022-08-01T16:10:47.186Z,46.22
2022-08-01T16:13:18.733Z,47.23
2022-08-01T16:15:53.417Z,47.73
2022-08-01T16:18:23.372Z,48.31
2022-08-01T16:20:50.485Z,48.01
2022-08-01T16:23:17.621Z,48.57
2022-08-01T16:25:51.793Z,48.61
2022-08-01T16:28:21.798Z,47.73
2022-08-01T16:31:10.112Z,48.28
2022-08-01T16:33:58.190Z,48.02
2022-08-01T16:39:14.193Z,47.81
2022-08-01T16:41:55.136Z,47.80
2022-08-01T16:44:28.576Z,48.05
2022-08-01T16:47:03.609Z,48.46
2022-08-01T16:49:32.009Z,48.38
2022-08-01T16:52:07.333Z,48.76
2022-08-01T16:54:53.210Z,48.83
2022-08-01T16:57:20.424Z,49.01
2022-08-01T16:59:47.658Z,49.42
2022-08-01T17:02:15.608Z,49.01
2022-08-01T17:04:42.929Z,49.31
2022-08-01T17:07:15.251Z,49.72
2022-08-01T17:09:57.553Z,49.76
2022-08-01T17:12:24.840Z,50.48
2022-08-01T17:15:10.924Z,51.64
2022-08-01T17:17:43.913Z,52.76
2022-08-01T17:20:29.632Z,53.47
2022-08-01T17:22:57.143Z,53.72
2022-08-01T17:25:24.581Z,54.00
2022-08-01T17:27:58.653Z,53.97
2022-08-01T17:30:44.238Z,54.60
2022-08-01T17:33:11.540Z,54.87
2022-08-01T17:35:38.740Z,55.16
2022-08-01T17:38:06.001Z,55.02
2022-08-01T17:40:40.560Z,54.81
2022-08-01T17:43:08.868Z,54.80
2022-08-01T17:45:47.633Z,54.50
2022-08-01T17:48:24.096Z,54.61
2022-08-01T17:51:10.056Z,54.73
2022-08-01T17:53:37.333Z,54.99
2022-08-01T17:56:23.679Z,54.90
2022-08-01T17:58:52.585Z,55.04
2022-08-01T18:01:38.020Z,55.45
2022-08-01T18:04:20.717Z,55.44
2022-08-01T18:06:58.107Z,55.71
2022-08-01T18:09:32.672Z,55.48
2022-08-01T18:12:02.027Z,55.43
2022-08-01T18:14:39.985Z,54.73
2022-08-01T18:17:11.161Z,54.97
2022-08-01T18:19:39.882Z,55.22
2022-08-01T18:22:31.517Z,55.37
2022-08-01T18:25:08.350Z,55.26
2022-08-01T18:28:25.778Z,55.08
2022-08-01T18:30:23.773Z,55.32
2022-08-01T18:32:50.996Z,55.89
2022-08-01T18:35:18.392Z,55.52
2022-08-01T18:37:57.100Z,55.40
2022-08-01T18:40:34.980Z,55.55
2022-08-01T18:43:20.618Z,55.43
2022-08-01T18:45:57.676Z,54.96
2022-08-01T18:48:28.891Z,55.64
2022-08-01T18:50:56.203Z,55.53
2022-08-01T18:53:26.213Z,55.78
2022-08-01T18:55:53.433Z,55.90
2022-08-01T18:58:39.894Z,56.30
2022-08-01T19:01:07.219Z,55.95
2022-08-01T19:03:42.526Z,56.27
2022-08-01T19:06:14.355Z,56.08
2022-08-01T19:08:41.704Z,55.93
2022-08-01T19:11:08.856Z,55.82
2022-08-01T19:13:44.279Z,55.79
2022-08-01T19:16:11.710Z,56.09
2022-08-01T19:18:57.650Z,56.20
2022-08-01T19:21:27.845Z,56.21
2022-08-01T19:24:22.737Z,56.57
2022-08-01T19:26:53.781Z,56.92
2022-08-01T19:29:24.114Z,57.17
2022-08-01T19:32:08.136Z,57.21
2022-08-01T19:34:39.825Z,57.44
2022-08-01T19:37:10.064Z,57.54
2022-08-01T19:39:51.787Z,57.90
2022-08-01T19:42:20.357Z,58.39
2022-08-01T19:44:48.929Z,58.21
2022-08-01T19:47:17.203Z,58.22
2022-08-01T19:50:05.038Z,58.30
2022-08-01T19:52:36.486Z,58.66
2022-08-01T19:55:10.290Z,58.34
2022-08-01T19:58:16.959Z,58.11
2022-08-01T20:00:36.838Z,58.70
2022-08-01T20:03:05.215Z,59.01
2022-08-01T20:05:34.224Z,58.71
2022-08-01T20:08:09.693Z,58.83
2022-08-01T20:10:56.673Z,59.21
2022-08-01T20:13:24.121Z,59.33
2022-08-01T20:15:53.113Z,59.73
2022-08-01T20:18:20.436Z,60.06
2022-08-01T20:20:52.442Z,60.11
2022-08-01T20:23:24.674Z,60.36
2022-08-01T20:25:54.864Z,60.28
2022-08-01T20:28:30.606Z,61.08
2022-08-01T20:31:05.286Z,61.45
2022-08-01T20:33:44.886Z,61.35
2022-08-01T20:36:25.806Z,61.19
2022-08-01T20:38:55.195Z,61.24
2022-08-01T20:41:25.325Z,61.42
2022-08-01T20:43:57.533Z,61.79
2022-08-01T20:46:28.699Z,61.43
2022-08-01T20:48:58.304Z,61.68
2022-08-01T20:51:26.442Z,61.94
2022-08-01T20:53:56.141Z,61.96
2022-08-01T20:56:29.852Z,61.86
2022-08-01T20:59:39.887Z,62.06
2022-08-01T21:02:35.351Z,62.43
2022-08-01T21:05:07.517Z,63.22
2022-08-01T21:07:58.997Z,63.45
2022-08-01T21:10:28.817Z,63.04
2022-08-01T21:13:05.654Z,63.65
2022-08-01T21:16:07.433Z,63.62
2022-08-01T21:22:01.266Z,63.31
2022-08-01T21:24:41.314Z,63.32
2022-08-01T21:27:09.563Z,63.83
2022-08-01T21:29:56.518Z,63.79
2022-08-01T21:32:29.621Z,63.85
2022-08-01T21:34:56.946Z,64.31
2022-08-01T21:37:24.427Z,63.71
2022-08-01T21:39:55.019Z,64.34
2022-08-01T21:42:37.658Z,65.29
2022-08-01T21:45:24.992Z,64.62
2022-08-01T21:47:53.242Z,65.04
2022-08-01T21:50:21.161Z,64.97
2022-08-01T21:52:54.078Z,65.42
2022-08-01T21:55:34.929Z,65.17
2022-08-01T21:58:24.809Z,66.42
2022-08-01T22:01:03.252Z,65.09
2022-08-01T22:03:41.357Z,66.40
2022-08-01T22:06:09.680Z,66.69
2022-08-01T22:08:48.602Z,67.15
2022-08-01T22:11:20.776Z,67.24
2022-08-01T22:13:53.646Z,66.70
2022-08-01T22:16:31.441Z,67.26
2022-08-01T22:19:01.610Z,66.17
2022-08-01T22:21:37.655Z,67.86
2022-08-01T22:24:11.938Z,67.92
2022-08-01T22:26:41.431Z,68.68
2022-08-01T22:29:08.565Z,69.22
2022-08-01T22:31:38.104Z,69.44
2022-08-01T22:34:07.085Z,68.09
2022-08-01T22:36:43.996Z,68.97
2022-08-01T22:39:26.362Z,68.68
2022-08-01T22:42:01.280Z,69.99
2022-08-01T22:45:19.974Z,69.48
2022-08-01T22:47:54.871Z,70.00
2022-08-01T22:50:39.543Z,69.92
2022-08-01T22:53:26.429Z,70.32
2022-08-01T22:55:58.941Z,69.82
2022-08-01T22:58:40.163Z,69.80
2022-08-01T23:01:12.596Z,70.16
2022-08-01T23:04:11.868Z,70.67
2022-08-01T23:06:50.812Z,70.08
2022-08-01T23:09:20.310Z,71.27
2022-08-01T23:11:53.051Z,70.16
2022-08-01T23:14:27.214Z,71.61
2022-08-01T23:16:56.986Z,70.38
2022-08-01T23:19:27.783Z,70.98
2022-08-01T23:21:55.537Z,72.44
2022-08-01T23:24:33.639Z,71.72
2022-08-01T23:27:54.424Z,70.98
2022-08-01T23:30:14.250Z,71.92
2022-08-01T23:33:00.215Z,72.13
2022-08-01T23:35:29.073Z,72.53
2022-08-01T23:38:02.032Z,73.40
2022-08-01T23:40:31.986Z,73.77
2022-08-01T23:43:00.273Z,74.11
2022-08-01T23:46:02.384Z,74.09
2022-08-01T23:48:25.449Z,74.63
2022-08-01T23:50:58.657Z,73.35
2022-08-01T23:53:44.050Z,72.98
2022-08-01T23:56:25.425Z,73.30
2022-08-01T23:59:02.838Z,73.74
